Aérodrome :
LOGIN :

S'inscrire | Disclaimer

   EN    FR    IT 

 










Légende :    VFR   VFR Marginal   IFR   IFR Intensif   IFR Très Intensif
Visi : 
Plafond : 
>= 8 km
>= 3000ft
5 à 8 km
1000 à 3000 ft
1500m à 5 km
500 à 1000 ft
800 à 1500m
200 à 500 ft
< 800m
< 200 ft
Symboles :   Orages  Brouillard  Fortes neiges  Fortes précipitations  Vent > 20 kt
SIGMETs :   Divers  Orages  Givrage  Turbulence  Onde Orograph.  Cendres Volcan.






- Altitude de l'aérodrome : 220 ft
- Code IATA : CWL


EGFF - Cardiff Rhoose

DERNIER METAR :
  • 111250Z AUTO 23005KT 9999 NCD 25/19 Q1015

METARs EXPIRÉS :
  • 111220Z AUTO 23004KT 190V260 9999 NCD 24/19 Q1015
  • 111150Z AUTO VRB03KT 9999 NCD 24/19 Q1015
  • 111120Z AUTO 19004KT 150V250 9999 NCD 23/18 Q1015
  • 111050Z AUTO 18004KT 140V230 9999 NCD 23/19 Q1015
  • 111020Z AUTO 17004KT 9999 NCD 22/19 Q1015

TAF TAF EGFF
Valide du 11 à 12h jusqu'au 12 à 12h UTC


111104Z 1112/1212 18006KT 9999 FEW020
TEMPO 1112/1119 6000 SHRA
PROB30
TEMPO 1112/1117 4000 +SHRA
PROB40
TEMPO 1119/1124 4000 BR BKN004
PROB30
TEMPO 1210/1212 3000 +SHRA
ATIS : +44 1446 729 319



MET'MAP, la Météo Aéronautique d'un coup d'oeil ! - Copyright ORBIFLY Décembre 2007 - Disclaimer

ORBIFLY MET'MAP TEAM :

Programmation & Développement : Alexandra Zaïnal
Sur une idée originale de : Baudouin d'Aumeries
Assistance à la programmation : Marc-Olivier Méhu
Soutien technique & logistique : Manuel Goepfert

Contact : metmap@orbifly.com




SOURCES & CREDITS :

   NOAA